Time;durP1;ratioP1;P1;durP2;ratioP2;P2;SDS_P1;SDS_P2;PMS_P1;PMS_P2;Temp;Humidity;BMP_temperature;BMP_pressure;BME280_temperature;BME280_humidity;BME280_pressure;Samples;Min_cycle;Max_cycle;Signal;HPM_P1;HPM_P2
2022/11/27 00:02:23;;;;;;;;;;;;;;;-143.57;100.00;51334.78;5051946;28;19932;-67
2022/11/27 00:04:49;;;;;;;;;;;;;;;-143.57;100.00;51295.03;5059995;28;19936;-66
2022/11/27 00:07:16;;;;;;;;;;;;;;;-143.57;100.00;51287.09;5052114;28;20005;-66
2022/11/27 00:09:43;;;;;;;;;;;;;;;-143.57;100.00;51334.78;5057507;28;20799;-66
2022/11/27 00:12:09;;;;;;;;;;;;;;;-143.57;100.00;51306.97;5056123;28;19939;-66
2022/11/27 00:14:36;;;;;;;;;;;;;;;-143.57;100.00;51297.03;5059892;28;19925;-66
2022/11/27 00:17:03;;;;;;;;;;;;;;;-143.57;100.00;51304.97;5060505;28;19940;-66
2022/11/27 00:19:29;;;;;;;;;;;;;;;-143.57;100.00;51318.88;5064312;27;19951;-66
2022/11/27 00:21:56;;;;;;;;;;;;;;;-143.57;100.00;51326.84;5057272;28;19935;-66
2022/11/27 00:24:22;;;;;;;;;;;;;;;-143.57;100.00;51306.97;5056739;28;20472;-66
2022/11/27 00:26:49;;;;;;;;;;;;;;;-143.57;100.00;51322.88;5066057;28;19935;-66
2022/11/27 00:29:16;;;;;;;;;;;;;;;-143.57;100.00;51291.06;5063061;28;19928;-66
2022/11/27 00:31:43;;;;;;;;;;;;;;;-143.57;100.00;51299.00;5056668;28;19931;-65
2022/11/27 00:34:10;;;;;;;;;;;;;;;-143.57;100.00;51322.88;5058569;28;19929;-65
2022/11/27 00:36:37;;;;;;;;;;;;;;;-143.57;100.00;51273.16;5056818;28;19928;-65
2022/11/27 00:39:04;;;;;;;;;;;;;;;-143.57;100.00;51336.78;5057476;28;19935;-66
2022/11/27 00:41:31;;;;;;;;;;;;;;;-143.57;100.00;51330.81;5065294;28;19976;-65
2022/11/27 00:43:58;;;;;;;;;;;;;;;-143.57;100.00;51267.19;5058837;28;20009;-66
2022/11/27 00:46:26;;;;;;;;;;;;;;;-143.57;100.00;51318.88;5059066;28;20903;-67
2022/11/27 00:48:55;;;;;;;;;;;;;;;-143.57;100.00;51330.81;5052819;28;19929;-66
2022/11/27 00:51:22;;;;;;;;;;;;;;;-143.57;100.00;51299.00;5053246;28;20012;-65
2022/11/27 00:53:49;;;;;;;;;;;;;;;-143.57;100.00;51310.94;5054180;28;20605;-65
2022/11/27 00:56:17;;;;;;;;;;;;;;;-143.57;100.00;51328.81;5052701;28;19933;-65
2022/11/27 00:58:44;;;;;;;;;;;;;;;-143.57;100.00;51304.97;5056007;28;20023;-66
2022/11/27 01:01:18;;;;;;;;;;;;;;;-143.57;100.00;51320.88;5052125;28;19925;-66
2022/11/27 01:03:45;;;;;;;;;;;;;;;-143.57;100.00;51299.00;5050293;28;20001;-66
2022/11/27 01:06:13;;;;;;;;;;;;;;;-143.57;100.00;51358.66;5053460;28;20613;-66
2022/11/27 01:08:40;;;;;;;;;;;;;;;-143.57;100.00;51299.00;5060058;28;20315;-64
2022/11/27 01:11:12;;;;;;;;;;;;;;;-143.57;100.00;51326.84;5058039;28;19925;-66
2022/11/27 01:13:39;;;;;;;;;;;;;;;-143.57;100.00;51334.78;5063846;28;19935;-66
2022/11/27 01:16:07;;;;;;;;;;;;;;;-143.57;100.00;51358.66;5061072;28;19940;-64
2022/11/27 01:18:35;;;;;;;;;;;;;;;-143.57;100.00;51350.69;5065277;28;20518;-65
2022/11/27 01:21:02;;;;;;;;;;;;;;;-143.57;100.00;51334.78;5058586;28;19986;-66
2022/11/27 01:23:29;;;;;;;;;;;;;;;-143.57;100.00;51326.84;5060756;28;19960;-65
2022/11/27 01:25:56;;;;;;;;;;;;;;;-143.57;100.00;51303.00;5056147;28;19933;-66
2022/11/27 01:28:23;;;;;;;;;;;;;;;-143.57;100.00;51306.97;5059472;28;19959;-66
2022/11/27 01:30:50;;;;;;;;;;;;;;;-143.57;100.00;51295.03;5055797;28;19925;-66
2022/11/27 01:33:17;;;;;;;;;;;;;;;-143.57;100.00;51318.88;5059722;28;20008;-65
2022/11/27 01:35:57;;;;;;;;;;;;;;;-143.57;100.00;51338.78;5061735;28;19936;-65
2022/11/27 01:38:24;;;;;;;;;;;;;;;-143.57;100.00;51293.03;5056755;28;19928;-65
2022/11/27 01:40:58;;;;;;;;;;;;;;;-143.57;100.00;51330.81;5059445;28;19928;-64
2022/11/27 01:43:35;;;;;;;;;;;;;;;-143.57;100.00;51366.59;5058989;28;19936;-65
2022/11/27 01:46:02;;;;;;;;;;;;;;;-143.57;100.00;51326.84;5061560;28;20050;-66
2022/11/27 01:48:28;;;;;;;;;;;;;;;-143.57;100.00;51322.88;5059213;28;19928;-66
2022/11/27 01:50:55;;;;;;;;;;;;;;;-143.57;100.00;51322.88;5064773;28;19929;-65
2022/11/27 01:53:22;;;;;;;;;;;;;;;-143.57;100.00;51304.97;5059512;28;20011;-65
2022/11/27 01:55:51;;;;;;;;;;;;;;;-143.57;100.00;51326.84;5062397;28;19963;-65
2022/11/27 01:58:23;;;;;;;;;;;;;;;-143.57;100.00;51332.81;5054154;28;19928;-65
2022/11/27 02:00:49;;;;;;;;;;;;;;;-143.57;100.00;51318.88;5059903;28;19950;-65
2022/11/27 02:03:16;;;;;;;;;;;;;;;-143.57;100.00;51358.66;5058766;28;19924;-65
2022/11/27 02:05:43;;;;;;;;;;;;;;;-143.57;100.00;51291.06;5062999;28;19934;-66
2022/11/27 02:08:12;;;;;;;;;;;;;;;-143.57;100.00;51334.78;5065035;28;19938;-65
2022/11/27 02:10:39;;;;;;;;;;;;;;;-143.57;100.00;51291.06;5057872;28;19947;-64
2022/11/27 02:13:10;;;;;;;;;;;;;;;-143.57;100.00;51314.91;5060818;28;19968;-65
2022/11/27 02:15:42;;;;;;;;;;;;;;;-143.57;100.00;51318.88;5061011;28;20013;-65
2022/11/27 02:18:20;;;;;;;;;;;;;;;-143.57;100.00;51338.78;5065396;28;19949;-65
2022/11/27 02:20:47;;;;;;;;;;;;;;;-143.57;100.00;51299.00;5065903;28;19986;-64
2022/11/27 02:23:35;;;;;;;;;;;;;;;-143.57;100.00;51326.84;5062512;28;19924;-64
2022/11/27 02:26:17;;;;;;;;;;;;;;;-143.57;100.00;51348.72;5059512;28;19936;-65
2022/11/27 02:28:53;;;;;;;;;;;;;;;-143.57;100.00;51322.88;5080624;28;19952;-64
2022/11/27 02:31:38;;;;;;;;;;;;;;;-143.57;100.00;51314.91;5071404;28;19932;-65
2022/11/27 02:34:12;;;;;;;;;;;;;;;-143.57;100.00;51338.78;5063400;28;19981;-65
2022/11/27 02:36:39;;;;;;;;;;;;;;;-143.57;100.00;51277.16;5052320;28;19928;-66
2022/11/27 02:39:15;;;;;;;;;;;;;;;-143.57;100.00;51310.94;5060758;28;19936;-65
2022/11/27 02:41:48;;;;;;;;;;;;;;;-143.57;100.00;51287.09;5058802;28;19981;-65
2022/11/27 02:44:15;;;;;;;;;;;;;;;-143.57;100.00;51291.06;5065644;28;19931;-65
2022/11/27 02:46:44;;;;;;;;;;;;;;;-143.57;100.00;51314.91;5064260;28;20005;-66
2022/11/27 02:49:13;;;;;;;;;;;;;;;-143.57;100.00;51342.75;5063536;28;20328;-65
2022/11/27 02:51:43;;;;;;;;;;;;;;;-143.57;100.00;51322.88;5053594;28;20027;-66
2022/11/27 02:54:13;;;;;;;;;;;;;;;-143.57;100.00;51354.66;5058029;28;20348;-64
2022/11/27 02:56:41;;;;;;;;;;;;;;;-143.57;100.00;51287.09;5058086;28;19990;-65
2022/11/27 02:59:11;;;;;;;;;;;;;;;-143.57;100.00;51295.03;5066149;28;19929;-65
2022/11/27 03:01:41;;;;;;;;;;;;;;;-143.57;100.00;51291.06;5062204;28;19956;-65
2022/11/27 03:04:13;;;;;;;;;;;;;;;-143.57;100.00;51314.91;5054084;28;20793;-65
2022/11/27 03:06:43;;;;;;;;;;;;;;;-143.57;100.00;51322.88;5059092;28;19932;-65
2022/11/27 03:09:13;;;;;;;;;;;;;;;-143.57;100.00;51308.94;5054144;28;19928;-65
2022/11/27 03:11:40;;;;;;;;;;;;;;;-143.57;100.00;51310.94;5057993;28;19935;-65
2022/11/27 03:14:09;;;;;;;;;;;;;;;-143.57;100.00;51299.00;5054908;28;19932;-65
2022/11/27 03:16:35;;;;;;;;;;;;;;;-143.57;100.00;51326.84;5057071;28;19935;-65
2022/11/27 03:19:21;;;;;;;;;;;;;;;-143.57;100.00;51310.94;5057976;28;20777;-65
2022/11/27 03:21:51;;;;;;;;;;;;;;;-143.57;100.00;51342.75;5058302;28;19981;-65
2022/11/27 03:24:18;;;;;;;;;;;;;;;-143.57;100.00;51271.19;5059119;28;19924;-65
2022/11/27 03:26:44;;;;;;;;;;;;;;;-143.57;100.00;51346.72;5059430;28;19928;-65
2022/11/27 03:29:14;;;;;;;;;;;;;;;-143.57;100.00;51318.88;5052252;28;19932;-65
2022/11/27 03:31:40;;;;;;;;;;;;;;;-143.57;100.00;51330.81;5064771;28;19935;-65
2022/11/27 03:34:07;;;;;;;;;;;;;;;-143.57;100.00;51334.78;5059662;28;19924;-65
2022/11/27 03:36:34;;;;;;;;;;;;;;;-143.57;100.00;51326.84;5061609;28;19986;-65
2022/11/27 03:39:01;;;;;;;;;;;;;;;-143.57;100.00;51275.16;5058297;28;19932;-65
2022/11/27 03:41:33;;;;;;;;;;;;;;;-143.57;100.00;51322.88;5060553;28;19933;-65
2022/11/27 03:44:18;;;;;;;;;;;;;;;-143.57;100.00;51312.94;5054785;28;20855;-65
2022/11/27 03:46:53;;;;;;;;;;;;;;;-143.57;100.00;51310.94;5061283;28;20030;-65
2022/11/27 03:49:38;;;;;;;;;;;;;;;-143.57;100.00;51283.09;5058912;28;19978;-65
2022/11/27 03:52:14;;;;;;;;;;;;;;;-143.57;100.00;51330.81;5061532;28;19978;-65
2022/11/27 03:54:59;;;;;;;;;;;;;;;-143.57;100.00;51326.84;5065694;28;19967;-66
2022/11/27 03:57:33;;;;;;;;;;;;;;;-143.57;100.00;51314.91;5060606;28;19978;-65
2022/11/27 04:00:02;;;;;;;;;;;;;;;-143.57;100.00;51334.78;5058822;28;20666;-65
2022/11/27 04:02:39;;;;;;;;;;;;;;;-143.57;100.00;51326.84;5056952;28;19929;-65
2022/11/27 04:05:05;;;;;;;;;;;;;;;-143.57;100.00;51326.84;5061064;28;19936;-65
2022/11/27 04:07:32;;;;;;;;;;;;;;;-143.57;100.00;51374.56;5056472;28;19924;-65
2022/11/27 04:09:59;;;;;;;;;;;;;;;-143.57;100.00;51303.00;5059630;28;19924;-65
2022/11/27 04:12:25;;;;;;;;;;;;;;;-143.57;100.00;51306.97;5058560;28;19975;-65
2022/11/27 04:14:52;;;;;;;;;;;;;;;-143.57;100.00;51342.75;5064569;28;20336;-65
2022/11/27 04:17:19;;;;;;;;;;;;;;;-143.57;100.00;51301.00;5055304;28;20480;-65
2022/11/27 04:19:45;;;;;;;;;;;;;;;-143.57;100.00;51293.03;5056333;28;20055;-65
2022/11/27 04:22:12;;;;;;;;;;;;;;;-143.57;100.00;51314.91;5058944;28;19932;-65
2022/11/27 04:24:38;;;;;;;;;;;;;;;-143.57;100.00;51314.91;5062213;28;19974;-66
2022/11/27 04:27:06;;;;;;;;;;;;;;;-143.57;100.00;51289.06;5057101;28;19971;-65
2022/11/27 04:29:32;;;;;;;;;;;;;;;-143.57;100.00;51318.88;5058158;28;19985;-65
2022/11/27 04:31:59;;;;;;;;;;;;;;;-143.57;100.00;51269.19;5059469;28;20487;-65
2022/11/27 04:34:25;;;;;;;;;;;;;;;-143.57;100.00;51303.00;5061596;28;20425;-64
2022/11/27 04:36:52;;;;;;;;;;;;;;;-143.57;100.00;51314.91;5057816;28;20183;-65
2022/11/27 04:39:19;;;;;;;;;;;;;;;-143.57;100.00;51310.94;5054744;28;19928;-66
2022/11/27 04:41:46;;;;;;;;;;;;;;;-143.57;100.00;51314.91;5058379;28;20571;-66
2022/11/27 04:44:12;;;;;;;;;;;;;;;-143.57;100.00;51342.75;5053484;28;19932;-66
2022/11/27 04:46:39;;;;;;;;;;;;;;;-143.57;100.00;51322.88;5059099;28;20391;-66
2022/11/27 04:49:08;;;;;;;;;;;;;;;-143.57;100.00;51318.88;5060720;28;19925;-66
2022/11/27 04:51:34;;;;;;;;;;;;;;;-143.57;100.00;51326.84;5063349;28;19929;-66
2022/11/27 04:54:01;;;;;;;;;;;;;;;-143.57;100.00;51269.19;5065515;28;19929;-66
2022/11/27 04:56:28;;;;;;;;;;;;;;;-143.57;100.00;51306.97;5059857;28;19928;-66
2022/11/27 04:58:54;;;;;;;;;;;;;;;-143.57;100.00;51312.94;5061265;28;20003;-65
2022/11/27 05:01:21;;;;;;;;;;;;;;;-143.57;100.00;51318.88;5059653;28;19928;-66
2022/11/27 05:03:48;;;;;;;;;;;;;;;-143.57;100.00;51303.00;5059261;28;20439;-66
2022/11/27 05:06:14;;;;;;;;;;;;;;;-143.57;100.00;51326.84;5064370;28;19928;-66
2022/11/27 05:08:41;;;;;;;;;;;;;;;-143.57;100.00;51301.00;5062390;28;19932;-66
2022/11/27 05:11:12;;;;;;;;;;;;;;;-143.57;100.00;51303.00;5063732;28;19928;-67
2022/11/27 05:13:39;;;;;;;;;;;;;;;-143.57;100.00;51283.09;5063929;28;19948;-66
2022/11/27 05:16:06;;;;;;;;;;;;;;;-143.57;100.00;51318.88;5060187;28;19982;-66
2022/11/27 05:18:33;;;;;;;;;;;;;;;-143.57;100.00;51289.06;5066735;28;20360;-65
2022/11/27 05:21:04;;;;;;;;;;;;;;;-143.57;100.00;51283.09;5057833;28;19936;-66
2022/11/27 05:23:31;;;;;;;;;;;;;;;-143.57;100.00;51303.00;5058448;28;19932;-66
2022/11/27 05:25:58;;;;;;;;;;;;;;;-143.57;100.00;51299.00;5059380;28;20024;-67
2022/11/27 05:28:25;;;;;;;;;;;;;;;-143.57;100.00;51322.88;5055805;28;19975;-65
2022/11/27 05:30:52;;;;;;;;;;;;;;;-143.57;100.00;51291.06;5053328;28;20752;-66
2022/11/27 05:33:19;;;;;;;;;;;;;;;-143.57;100.00;51326.84;5057647;28;19930;-66
2022/11/27 05:35:46;;;;;;;;;;;;;;;-143.57;100.00;51310.94;5059944;28;20029;-64
2022/11/27 05:38:12;;;;;;;;;;;;;;;-143.57;100.00;51338.78;5059659;28;19967;-68
2022/11/27 05:40:39;;;;;;;;;;;;;;;-143.57;100.00;51314.91;5060206;28;19947;-66
2022/11/27 05:43:06;;;;;;;;;;;;;;;-143.57;100.00;51320.88;5058142;28;19978;-65
2022/11/27 05:45:32;;;;;;;;;;;;;;;-143.57;100.00;51334.78;5059650;28;19951;-65
2022/11/27 05:47:59;;;;;;;;;;;;;;;-143.57;100.00;51303.00;5057209;28;20021;-65
2022/11/27 05:50:25;;;;;;;;;;;;;;;-143.57;100.00;51269.19;5062230;28;19928;-66
2022/11/27 05:52:52;;;;;;;;;;;;;;;-143.57;100.00;51318.88;5058220;28;19928;-65
2022/11/27 05:55:19;;;;;;;;;;;;;;;-143.57;100.00;51314.91;5059766;28;19951;-65
2022/11/27 05:57:45;;;;;;;;;;;;;;;-143.57;100.00;51283.09;5059143;28;19928;-66
2022/11/27 06:00:13;;;;;;;;;;;;;;;-143.57;100.00;51326.84;5059244;28;19928;-67
2022/11/27 06:02:39;;;;;;;;;;;;;;;-143.57;100.00;51310.94;5065580;28;19924;-68
2022/11/27 06:05:06;;;;;;;;;;;;;;;-143.57;100.00;51306.97;5059895;28;19928;-68
2022/11/27 06:07:33;;;;;;;;;;;;;;;-143.57;100.00;51306.97;5065462;28;20332;-67
2022/11/27 06:10:01;;;;;;;;;;;;;;;-143.57;100.00;51318.88;5061862;28;20024;-67
2022/11/27 06:12:29;;;;;;;;;;;;;;;-143.57;100.00;51295.03;5061930;28;19934;-66
2022/11/27 06:14:56;;;;;;;;;;;;;;;-143.57;100.00;51295.03;5058199;28;19924;-66
2022/11/27 06:17:23;;;;;;;;;;;;;;;-143.57;100.00;51330.81;5066920;28;20166;-66
2022/11/27 06:19:50;;;;;;;;;;;;;;;-143.57;100.00;51322.88;5054690;28;19997;-66
2022/11/27 06:22:17;;;;;;;;;;;;;;;-143.57;100.00;51322.88;5061859;28;19924;-66
2022/11/27 06:24:43;;;;;;;;;;;;;;;-143.57;100.00;51318.88;5060772;28;21188;-67
2022/11/27 06:27:10;;;;;;;;;;;;;;;-143.57;100.00;51287.09;5062766;28;19943;-67
2022/11/27 06:29:37;;;;;;;;;;;;;;;-143.57;100.00;51303.00;5058318;28;19971;-67
2022/11/27 06:32:04;;;;;;;;;;;;;;;-143.57;100.00;51358.66;5058071;28;19939;-66
2022/11/27 06:34:30;;;;;;;;;;;;;;;-143.57;100.00;51291.06;5064078;28;19928;-67
2022/11/27 06:36:57;;;;;;;;;;;;;;;-143.57;100.00;51330.81;5065054;28;19928;-67
2022/11/27 06:39:24;;;;;;;;;;;;;;;-143.57;100.00;51303.00;5062555;28;20499;-67
2022/11/27 06:41:50;;;;;;;;;;;;;;;-143.57;100.00;51320.88;5053597;28;20389;-66
2022/11/27 06:44:17;;;;;;;;;;;;;;;-143.57;100.00;51320.88;5062841;28;19924;-66
2022/11/27 06:46:44;;;;;;;;;;;;;;;-143.57;100.00;51332.81;5060708;28;20388;-66
2022/11/27 06:49:11;;;;;;;;;;;;;;;-143.57;100.00;51318.88;5066005;28;19931;-66
2022/11/27 06:51:37;;;;;;;;;;;;;;;-143.57;100.00;51322.88;5055993;28;19925;-66
2022/11/27 06:54:04;;;;;;;;;;;;;;;-143.57;100.00;51306.97;5056873;28;19967;-66
2022/11/27 06:56:31;;;;;;;;;;;;;;;-143.57;100.00;51324.84;5054113;28;19936;-66
2022/11/27 06:58:59;;;;;;;;;;;;;;;-143.57;100.00;51352.69;5056284;28;19932;-67
2022/11/27 07:01:26;;;;;;;;;;;;;;;-143.57;100.00;51304.97;5056364;28;20048;-67
2022/11/27 07:03:54;;;;;;;;;;;;;;;-143.57;100.00;51326.84;5062223;28;20362;-66
2022/11/27 07:06:22;;;;;;;;;;;;;;;-143.57;100.00;51330.81;5064433;28;19986;-67
2022/11/27 07:08:49;;;;;;;;;;;;;;;-143.57;100.00;51306.97;5055367;28;19935;-68
2022/11/27 07:11:17;;;;;;;;;;;;;;;-143.57;100.00;51293.03;5062051;28;20535;-67
2022/11/27 07:13:46;;;;;;;;;;;;;;;-143.57;100.00;51330.81;5057735;28;20323;-67
2022/11/27 07:16:13;;;;;;;;;;;;;;;-143.57;100.00;51342.75;5056689;28;19932;-67
2022/11/27 07:18:41;;;;;;;;;;;;;;;-143.57;100.00;51295.03;5064126;28;19983;-67
2022/11/27 07:21:08;;;;;;;;;;;;;;;-143.57;100.00;51326.84;5059957;28;21291;-68
2022/11/27 07:23:35;;;;;;;;;;;;;;;-143.57;100.00;51342.75;5051973;28;19929;-67
2022/11/27 07:26:05;;;;;;;;;;;;;;;-143.57;100.00;51346.72;5061273;28;19928;-67
2022/11/27 07:28:32;;;;;;;;;;;;;;;-143.57;100.00;51322.88;5050091;28;20772;-74
2022/11/27 07:31:03;;;;;;;;;;;;;;;-143.57;100.00;51303.00;5051570;28;20472;-73
2022/11/27 07:33:30;;;;;;;;;;;;;;;-143.57;100.00;51322.88;5059107;28;20043;-74
2022/11/27 07:35:58;;;;;;;;;;;;;;;-143.57;100.00;51314.91;5060774;28;19929;-65
2022/11/27 07:38:24;;;;;;;;;;;;;;;-143.57;100.00;51314.91;5058762;28;19940;-66
2022/11/27 07:40:51;;;;;;;;;;;;;;;-143.57;100.00;51338.78;5057058;28;19960;-66
2022/11/27 07:43:19;;;;;;;;;;;;;;;-143.57;100.00;51306.97;5067084;28;20027;-73
2022/11/27 07:45:46;;;;;;;;;;;;;;;-143.57;100.00;51338.78;5052992;28;20673;-73
2022/11/27 07:48:13;;;;;;;;;;;;;;;-143.57;100.00;51310.94;5054843;28;19932;-73
2022/11/27 07:50:40;;;;;;;;;;;;;;;-143.57;100.00;51330.81;5056938;28;19986;-73
2022/11/27 07:53:06;;;;;;;;;;;;;;;-143.57;100.00;51354.66;5058139;28;20511;-73
2022/11/27 07:55:33;;;;;;;;;;;;;;;-143.57;100.00;51322.88;5060768;28;19936;-73
2022/11/27 07:58:00;;;;;;;;;;;;;;;-143.57;100.00;51303.00;5051360;28;19963;-73
2022/11/27 08:00:26;;;;;;;;;;;;;;;-143.57;100.00;51306.97;5056560;28;20338;-73
2022/11/27 08:02:53;;;;;;;;;;;;;;;-143.57;100.00;51299.00;5054557;28;19935;-73
2022/11/27 08:05:20;;;;;;;;;;;;;;;-143.57;100.00;51314.91;5053003;28;19935;-73
2022/11/27 08:07:46;;;;;;;;;;;;;;;-143.57;100.00;51289.06;5054448;28;20765;-73
2022/11/27 08:10:13;;;;;;;;;;;;;;;-143.57;100.00;51340.75;5057758;28;19935;-73
2022/11/27 08:12:40;;;;;;;;;;;;;;;-143.57;100.00;51310.94;5052817;28;19924;-66
2022/11/27 08:15:07;;;;;;;;;;;;;;;-143.57;100.00;51322.88;5053417;28;20077;-66
2022/11/27 08:17:34;;;;;;;;;;;;;;;-143.57;100.00;51334.78;5056987;28;19928;-66
2022/11/27 08:20:00;;;;;;;;;;;;;;;-143.57;100.00;51332.81;5054622;28;20731;-67
2022/11/27 08:22:27;;;;;;;;;;;;;;;-143.57;100.00;51287.09;5058468;28;19925;-67
2022/11/27 08:24:54;;;;;;;;;;;;;;;-143.57;100.00;51328.81;5060891;28;19927;-68
2022/11/27 08:27:20;;;;;;;;;;;;;;;-143.57;100.00;51318.88;5060296;28;19974;-67
2022/11/27 08:29:47;;;;;;;;;;;;;;;-143.57;100.00;51303.00;5058352;28;19925;-67
2022/11/27 08:32:14;;;;;;;;;;;;;;;-143.57;100.00;51326.84;5060985;28;20662;-68
2022/11/27 08:34:40;;;;;;;;;;;;;;;-143.57;100.00;51322.88;5058871;28;20691;-67
2022/11/27 08:37:08;;;;;;;;;;;;;;;-143.57;100.00;51314.91;5057281;28;20019;-67
2022/11/27 08:39:34;;;;;;;;;;;;;;;-143.57;100.00;51314.91;5061001;28;20593;-67
2022/11/27 08:42:01;;;;;;;;;;;;;;;-143.57;100.00;51326.84;5061095;28;19929;-67
2022/11/27 08:44:28;;;;;;;;;;;;;;;-143.57;100.00;51299.00;5060703;28;20002;-65
2022/11/27 08:46:54;;;;;;;;;;;;;;;-143.57;100.00;51352.69;5061334;28;19925;-65
2022/11/27 08:49:21;;;;;;;;;;;;;;;-143.57;100.00;51306.97;5055574;28;19932;-66
2022/11/27 08:51:48;;;;;;;;;;;;;;;-143.57;100.00;51326.84;5054929;28;19973;-67
2022/11/27 08:54:15;;;;;;;;;;;;;;;-143.57;100.00;51299.00;5050177;28;19924;-66
2022/11/27 08:56:41;;;;;;;;;;;;;;;-143.57;100.00;51324.84;5058038;28;19975;-67
2022/11/27 08:59:08;;;;;;;;;;;;;;;-143.57;100.00;51275.16;5049572;28;20414;-66
2022/11/27 09:01:35;;;;;;;;;;;;;;;-143.57;100.00;51306.97;5054588;28;20517;-66
2022/11/27 09:04:01;;;;;;;;;;;;;;;-143.57;100.00;51324.84;5055335;28;19931;-66
2022/11/27 09:06:30;;;;;;;;;;;;;;;-143.57;100.00;51306.97;5052640;28;19933;-67
2022/11/27 09:08:58;;;;;;;;;;;;;;;-143.57;100.00;51303.00;5056431;28;19932;-66
2022/11/27 09:11:26;;;;;;;;;;;;;;;-143.57;100.00;51306.97;5054596;28;19960;-67
2022/11/27 09:13:53;;;;;;;;;;;;;;;-143.57;100.00;51310.94;5055731;28;19932;-67
2022/11/27 09:16:20;;;;;;;;;;;;;;;-143.57;100.00;51310.94;5051053;28;19989;-67
2022/11/27 09:18:48;;;;;;;;;;;;;;;-143.57;100.00;51350.69;5058875;28;19928;-66
2022/11/27 09:21:16;;;;;;;;;;;;;;;-143.57;100.00;51320.88;5058947;28;20576;-67
2022/11/27 09:23:43;;;;;;;;;;;;;;;-143.57;100.00;51314.91;5055741;28;19940;-67
2022/11/27 09:26:13;;;;;;;;;;;;;;;-143.57;100.00;51314.91;5052309;28;19936;-66
2022/11/27 09:28:41;;;;;;;;;;;;;;;-143.57;100.00;51306.97;5057083;28;19924;-67
2022/11/27 09:31:09;;;;;;;;;;;;;;;-143.57;100.00;51326.84;5055614;28;19932;-68
2022/11/27 09:33:36;;;;;;;;;;;;;;;-143.57;100.00;51303.00;5044220;28;20020;-68
2022/11/27 09:36:04;;;;;;;;;;;;;;;-143.57;100.00;51310.94;5052811;28;19933;-68
2022/11/27 09:38:31;;;;;;;;;;;;;;;-143.57;100.00;51308.94;5059797;28;19955;-75
2022/11/27 09:41:01;;;;;;;;;;;;;;;-143.57;100.00;51316.91;5055930;28;20508;-69
2022/11/27 09:43:32;;;;;;;;;;;;;;;-143.57;100.00;51344.72;5053311;28;20398;-66
2022/11/27 09:46:05;;;;;;;;;;;;;;;-143.57;100.00;51306.97;5049742;28;19925;-66
2022/11/27 09:48:34;;;;;;;;;;;;;;;-143.57;100.00;51263.22;5054913;28;19928;-70
2022/11/27 09:51:05;;;;;;;;;;;;;;;-143.57;100.00;51338.78;5056349;28;20455;-69
2022/11/27 09:53:36;;;;;;;;;;;;;;;-143.57;100.00;51297.03;5052828;28;19939;-69
2022/11/27 09:56:05;;;;;;;;;;;;;;;-143.57;100.00;51346.72;5053174;28;19940;-69
2022/11/27 09:58:37;;;;;;;;;;;;;;;-143.57;100.00;51303.00;5060547;28;20421;-68
2022/11/27 10:01:14;;;;;;;;;;;;;;;-143.57;100.00;51318.88;5058942;28;19975;-68
2022/11/27 10:03:44;;;;;;;;;;;;;;;-143.57;100.00;51342.75;5057440;28;19937;-71
2022/11/27 10:06:21;;;;;;;;;;;;;;;-143.57;100.00;51334.78;5066342;28;19979;-71
2022/11/27 10:08:50;;;;;;;;;;;;;;;-143.57;100.00;51350.69;5055487;28;19955;-78
2022/11/27 10:11:17;;;;;;;;;;;;;;;-143.57;100.00;51326.84;5065490;28;19928;-77
2022/11/27 10:13:54;;;;;;;;;;;;;;;-143.57;100.00;51279.13;5060775;28;19935;-65
2022/11/27 10:16:27;;;;;;;;;;;;;;;-143.57;100.00;51299.00;5063713;28;19932;-64
2022/11/27 10:18:58;;;;;;;;;;;;;;;-143.57;100.00;51291.06;5060166;28;19932;-67
2022/11/27 10:21:43;;;;;;;;;;;;;;;-143.57;100.00;51334.78;5062283;28;19928;-68
2022/11/27 10:24:19;;;;;;;;;;;;;;;-143.57;100.00;51291.06;5058596;28;20440;-67
2022/11/27 10:26:47;;;;;;;;;;;;;;;-143.57;100.00;51291.06;5059684;28;19935;-68
2022/11/27 10:29:25;;;;;;;;;;;;;;;-143.57;100.00;51314.91;5060524;28;19932;-68
2022/11/27 10:31:57;;;;;;;;;;;;;;;-143.57;100.00;51326.84;5063848;28;19935;-68
2022/11/27 10:34:33;;;;;;;;;;;;;;;-143.57;100.00;51330.81;5061779;28;19932;-67
2022/11/27 10:37:04;;;;;;;;;;;;;;;-143.57;100.00;51289.06;5060947;28;20328;-68
2022/11/27 10:39:40;;;;;;;;;;;;;;;-143.57;100.00;51322.88;5062378;28;19932;-67
2022/11/27 10:42:09;;;;;;;;;;;;;;;-143.57;100.00;51310.94;5056666;28;19952;-67
2022/11/27 10:44:38;;;;;;;;;;;;;;;-143.57;100.00;51314.91;5056584;28;19925;-66
2022/11/27 10:47:06;;;;;;;;;;;;;;;-143.57;100.00;51326.84;5055275;28;19963;-65
2022/11/27 10:49:36;;;;;;;;;;;;;;;-143.57;100.00;51306.97;5059480;28;19932;-66
2022/11/27 10:52:03;;;;;;;;;;;;;;;-143.57;100.00;51326.84;5056132;28;20256;-66
2022/11/27 10:54:32;;;;;;;;;;;;;;;-143.57;100.00;51340.75;5055753;28;19924;-66
2022/11/27 10:57:19;;;;;;;;;;;;;;;-143.57;100.00;51308.94;5048083;28;19940;-66
2022/11/27 11:00:06;;;;;;;;;;;;;;;-143.57;100.00;51314.91;5055828;28;20023;-66
2022/11/27 11:02:34;;;;;;;;;;;;;;;-143.57;100.00;51287.09;5050491;28;20528;-66
2022/11/27 11:05:10;;;;;;;;;;;;;;;-143.57;100.00;51303.00;5055040;28;20035;-66
2022/11/27 11:08:19;;;;;;;;;;;;;;;-143.57;100.00;51314.91;5048841;28;19925;-65
2022/11/27 11:10:56;;;;;;;;;;;;;;;-143.57;100.00;51303.00;5053375;28;20038;-66
2022/11/27 11:13:27;;;;;;;;;;;;;;;-143.57;100.00;51318.88;5048833;28;19933;-66
2022/11/27 11:15:53;;;;;;;;;;;;;;;-143.57;100.00;51273.16;5058926;28;19939;-67
2022/11/27 11:18:22;;;;;;;;;;;;;;;-143.57;100.00;51308.94;5055089;28;20447;-64
2022/11/27 11:20:53;;;;;;;;;;;;;;;-143.57;100.00;51318.88;5059741;28;19982;-66
2022/11/27 11:23:24;;;;;;;;;;;;;;;-143.57;100.00;51322.88;5056943;28;19928;-65
2022/11/27 11:25:54;;;;;;;;;;;;;;;-143.57;100.00;51303.00;5065178;28;19924;-66
2022/11/27 11:28:22;;;;;;;;;;;;;;;-143.57;100.00;51310.94;5052742;28;19933;-66
2022/11/27 11:30:57;;;;;;;;;;;;;;;-143.57;100.00;51306.97;5054670;28;19924;-67
2022/11/27 11:33:25;;;;;;;;;;;;;;;-143.57;100.00;51304.97;5053115;28;20826;-66
2022/11/27 11:35:53;;;;;;;;;;;;;;;-143.57;100.00;51322.88;5055325;28;19946;-66
2022/11/27 11:38:25;;;;;;;;;;;;;;;-143.57;100.00;51306.97;5054026;28;20429;-66
2022/11/27 11:41:00;;;;;;;;;;;;;;;-143.57;100.00;51346.72;5052717;28;19961;-66
2022/11/27 11:43:28;;;;;;;;;;;;;;;-143.57;100.00;51279.13;5056506;28;19928;-66
2022/11/27 11:46:02;;;;;;;;;;;;;;;-143.57;100.00;51330.81;5054129;28;19928;-66
2022/11/27 11:48:28;;;;;;;;;;;;;;;-143.57;100.00;51314.91;5055564;28;19934;-66
2022/11/27 11:51:01;;;;;;;;;;;;;;;-143.57;100.00;51326.84;5053673;28;20001;-66
2022/11/27 11:53:30;;;;;;;;;;;;;;;-143.57;100.00;51318.88;5063381;28;20158;-66
2022/11/27 11:55:57;;;;;;;;;;;;;;;-143.57;100.00;51342.75;5055255;28;19940;-66
2022/11/27 11:58:31;;;;;;;;;;;;;;;-143.57;100.00;51283.09;5061453;28;19935;-66
2022/11/27 12:01:13;;;;;;;;;;;;;;;-143.57;100.00;51299.00;5057384;28;20001;-66
2022/11/27 12:04:01;;;;;;;;;;;;;;;-143.57;100.00;51279.13;5058596;28;19997;-69
2022/11/27 12:06:47;;;;;;;;;;;;;;;-143.57;100.00;51299.00;5060821;28;19929;-67
2022/11/27 12:09:19;;;;;;;;;;;;;;;-143.57;100.00;51291.06;5070484;28;19932;-67
2022/11/27 12:11:59;;;;;;;;;;;;;;;-143.57;100.00;51306.97;5063375;28;19936;-66
2022/11/27 12:14:32;;;;;;;;;;;;;;;-143.57;100.00;51297.03;5064278;28;19924;-66
2022/11/27 12:17:05;;;;;;;;;;;;;;;-143.57;100.00;51306.97;5062769;28;19928;-65
2022/11/27 12:19:33;;;;;;;;;;;;;;;-143.57;100.00;51304.97;5067700;28;20009;-66
2022/11/27 12:22:09;;;;;;;;;;;;;;;-143.57;100.00;51310.94;5060356;28;19928;-66
2022/11/27 12:24:59;;;;;;;;;;;;;;;-143.57;100.00;51287.09;5066718;28;19936;-66
2022/11/27 12:27:31;;;;;;;;;;;;;;;-143.57;100.00;51306.97;5058983;28;20006;-66
2022/11/27 12:29:57;;;;;;;;;;;;;;;-143.57;100.00;51303.00;5066839;28;19956;-66